sensor_id;sensor_type;location;lat;lon;timestamp;temperature;humidity
31979;DHT22;18502;43.574;1.276;2022-08-07T00:00:19;25.20;60.60
31979;DHT22;18502;43.574;1.276;2022-08-07T00:02:45;25.30;60.90
31979;DHT22;18502;43.574;1.276;2022-08-07T00:05:10;25.20;61.10
31979;DHT22;18502;43.574;1.276;2022-08-07T00:07:36;25.20;61.30
31979;DHT22;18502;43.574;1.276;2022-08-07T00:10:02;25.10;61.60
31979;DHT22;18502;43.574;1.276;2022-08-07T00:12:28;25.10;61.80
31979;DHT22;18502;43.574;1.276;2022-08-07T00:14:54;25.00;62.40
31979;DHT22;18502;43.574;1.276;2022-08-07T00:17:20;24.90;62.30
31979;DHT22;18502;43.574;1.276;2022-08-07T00:19:45;24.90;62.80
31979;DHT22;18502;43.574;1.276;2022-08-07T00:22:11;24.80;62.80
31979;DHT22;18502;43.574;1.276;2022-08-07T00:24:37;24.80;62.50
31979;DHT22;18502;43.574;1.276;2022-08-07T00:27:03;24.80;62.70
31979;DHT22;18502;43.574;1.276;2022-08-07T00:29:29;24.80;62.80
31979;DHT22;18502;43.574;1.276;2022-08-07T00:31:55;24.80;62.80
31979;DHT22;18502;43.574;1.276;2022-08-07T00:34:25;24.80;62.70
31979;DHT22;18502;43.574;1.276;2022-08-07T00:36:50;24.70;62.70
31979;DHT22;18502;43.574;1.276;2022-08-07T00:39:16;24.60;62.90
31979;DHT22;18502;43.574;1.276;2022-08-07T00:41:54;24.60;63.70
31979;DHT22;18502;43.574;1.276;2022-08-07T00:44:21;24.50;63.90
31979;DHT22;18502;43.574;1.276;2022-08-07T00:46:46;24.40;64.70
31979;DHT22;18502;43.574;1.276;2022-08-07T00:49:12;24.30;65.50
31979;DHT22;18502;43.574;1.276;2022-08-07T00:51:38;24.30;66.20
31979;DHT22;18502;43.574;1.276;2022-08-07T00:54:04;24.20;66.30
31979;DHT22;18502;43.574;1.276;2022-08-07T00:56:30;24.10;67.20
31979;DHT22;18502;43.574;1.276;2022-08-07T00:58:56;24.00;67.50
31979;DHT22;18502;43.574;1.276;2022-08-07T01:01:22;23.90;67.70
31979;DHT22;18502;43.574;1.276;2022-08-07T01:03:49;23.70;68.80
31979;DHT22;18502;43.574;1.276;2022-08-07T01:06:18;23.40;70.20
31979;DHT22;18502;43.574;1.276;2022-08-07T01:08:45;23.10;71.40
31979;DHT22;18502;43.574;1.276;2022-08-07T01:11:13;22.90;72.50
31979;DHT22;18502;43.574;1.276;2022-08-07T01:13:40;22.80;73.40
31979;DHT22;18502;43.574;1.276;2022-08-07T01:16:07;22.70;74.10
31979;DHT22;18502;43.574;1.276;2022-08-07T01:18:33;22.80;74.70
31979;DHT22;18502;43.574;1.276;2022-08-07T01:21:13;22.70;75.70
31979;DHT22;18502;43.574;1.276;2022-08-07T01:23:40;22.60;76.60
31979;DHT22;18502;43.574;1.276;2022-08-07T01:26:08;22.50;77.50
31979;DHT22;18502;43.574;1.276;2022-08-07T01:28:34;22.40;79.00
31979;DHT22;18502;43.574;1.276;2022-08-07T01:31:01;22.50;79.50
31979;DHT22;18502;43.574;1.276;2022-08-07T01:33:28;22.60;79.50
31979;DHT22;18502;43.574;1.276;2022-08-07T01:35:56;22.40;80.60
31979;DHT22;18502;43.574;1.276;2022-08-07T01:38:24;22.40;81.40
31979;DHT22;18502;43.574;1.276;2022-08-07T01:40:53;22.30;82.00
31979;DHT22;18502;43.574;1.276;2022-08-07T01:43:19;22.20;82.60
31979;DHT22;18502;43.574;1.276;2022-08-07T01:45:45;22.30;83.10
31979;DHT22;18502;43.574;1.276;2022-08-07T01:48:12;22.30;82.60
31979;DHT22;18502;43.574;1.276;2022-08-07T01:50:38;22.40;82.70
31979;DHT22;18502;43.574;1.276;2022-08-07T01:53:06;22.40;82.60
31979;DHT22;18502;43.574;1.276;2022-08-07T01:55:36;22.50;81.30
31979;DHT22;18502;43.574;1.276;2022-08-07T01:58:07;22.60;81.00
31979;DHT22;18502;43.574;1.276;2022-08-07T02:00:35;22.60;81.50
31979;DHT22;18502;43.574;1.276;2022-08-07T02:03:13;22.50;82.00
31979;DHT22;18502;43.574;1.276;2022-08-07T02:06:04;22.50;82.20
31979;DHT22;18502;43.574;1.276;2022-08-07T02:08:35;22.50;82.20
31979;DHT22;18502;43.574;1.276;2022-08-07T02:11:07;22.60;81.90
31979;DHT22;18502;43.574;1.276;2022-08-07T02:13:33;22.50;82.20
31979;DHT22;18502;43.574;1.276;2022-08-07T02:16:01;22.40;82.20
31979;DHT22;18502;43.574;1.276;2022-08-07T02:18:30;22.40;82.50
31979;DHT22;18502;43.574;1.276;2022-08-07T02:20:58;22.40;82.70
31979;DHT22;18502;43.574;1.276;2022-08-07T02:23:25;22.40;83.10
31979;DHT22;18502;43.574;1.276;2022-08-07T02:25:52;22.30;83.00
31979;DHT22;18502;43.574;1.276;2022-08-07T02:28:19;22.40;82.80
31979;DHT22;18502;43.574;1.276;2022-08-07T02:30:47;22.40;82.70
31979;DHT22;18502;43.574;1.276;2022-08-07T02:33:14;22.40;82.60
31979;DHT22;18502;43.574;1.276;2022-08-07T02:35:42;22.30;82.70
31979;DHT22;18502;43.574;1.276;2022-08-07T02:38:10;22.30;83.40
31979;DHT22;18502;43.574;1.276;2022-08-07T02:40:37;22.20;83.20
31979;DHT22;18502;43.574;1.276;2022-08-07T02:43:04;22.20;83.40
31979;DHT22;18502;43.574;1.276;2022-08-07T02:45:31;22.20;83.70
31979;DHT22;18502;43.574;1.276;2022-08-07T02:47:57;22.10;83.70
31979;DHT22;18502;43.574;1.276;2022-08-07T02:50:24;22.00;84.00
31979;DHT22;18502;43.574;1.276;2022-08-07T02:52:57;22.10;84.00
31979;DHT22;18502;43.574;1.276;2022-08-07T02:55:29;22.00;84.10
31979;DHT22;18502;43.574;1.276;2022-08-07T02:58:00;22.10;84.20
31979;DHT22;18502;43.574;1.276;2022-08-07T03:00:28;21.90;84.20
31979;DHT22;18502;43.574;1.276;2022-08-07T03:02:55;22.00;84.20
31979;DHT22;18502;43.574;1.276;2022-08-07T03:05:23;21.90;83.90
31979;DHT22;18502;43.574;1.276;2022-08-07T03:07:49;21.90;84.50
31979;DHT22;18502;43.574;1.276;2022-08-07T03:10:15;21.90;84.50
31979;DHT22;18502;43.574;1.276;2022-08-07T03:12:44;21.90;84.10
31979;DHT22;18502;43.574;1.276;2022-08-07T03:15:11;21.90;84.10
31979;DHT22;18502;43.574;1.276;2022-08-07T03:17:37;21.90;84.10
31979;DHT22;18502;43.574;1.276;2022-08-07T03:20:04;21.80;84.10
31979;DHT22;18502;43.574;1.276;2022-08-07T03:22:30;21.80;83.80
31979;DHT22;18502;43.574;1.276;2022-08-07T03:24:57;21.80;83.70
31979;DHT22;18502;43.574;1.276;2022-08-07T03:27:24;21.80;83.80
31979;DHT22;18502;43.574;1.276;2022-08-07T03:29:51;21.80;84.10
31979;DHT22;18502;43.574;1.276;2022-08-07T03:32:38;21.80;84.00
31979;DHT22;18502;43.574;1.276;2022-08-07T03:35:11;21.70;84.40
31979;DHT22;18502;43.574;1.276;2022-08-07T03:37:38;21.60;85.30
31979;DHT22;18502;43.574;1.276;2022-08-07T03:40:06;21.60;85.30
31979;DHT22;18502;43.574;1.276;2022-08-07T03:42:34;21.50;85.70
31979;DHT22;18502;43.574;1.276;2022-08-07T03:45:01;21.50;86.00
31979;DHT22;18502;43.574;1.276;2022-08-07T03:47:27;21.50;86.30
31979;DHT22;18502;43.574;1.276;2022-08-07T03:49:55;21.50;86.00
31979;DHT22;18502;43.574;1.276;2022-08-07T03:52:24;21.40;86.70
31979;DHT22;18502;43.574;1.276;2022-08-07T03:54:51;21.50;86.80
31979;DHT22;18502;43.574;1.276;2022-08-07T03:57:18;21.50;87.10
31979;DHT22;18502;43.574;1.276;2022-08-07T03:59:44;21.40;86.70
31979;DHT22;18502;43.574;1.276;2022-08-07T04:02:10;21.40;86.90
31979;DHT22;18502;43.574;1.276;2022-08-07T04:04:36;21.40;86.70
31979;DHT22;18502;43.574;1.276;2022-08-07T04:07:02;21.50;87.10
31979;DHT22;18502;43.574;1.276;2022-08-07T04:09:30;21.50;86.70
31979;DHT22;18502;43.574;1.276;2022-08-07T04:11:56;21.40;86.80
31979;DHT22;18502;43.574;1.276;2022-08-07T04:14:23;21.40;87.20
31979;DHT22;18502;43.574;1.276;2022-08-07T04:16:49;21.30;87.40
31979;DHT22;18502;43.574;1.276;2022-08-07T04:19:15;21.30;87.70
31979;DHT22;18502;43.574;1.276;2022-08-07T04:21:41;21.30;87.80
31979;DHT22;18502;43.574;1.276;2022-08-07T04:24:07;21.20;87.70
31979;DHT22;18502;43.574;1.276;2022-08-07T04:26:39;21.20;88.10
31979;DHT22;18502;43.574;1.276;2022-08-07T04:29:08;21.20;88.10
31979;DHT22;18502;43.574;1.276;2022-08-07T04:31:39;21.10;88.40
31979;DHT22;18502;43.574;1.276;2022-08-07T04:34:06;21.10;88.50
31979;DHT22;18502;43.574;1.276;2022-08-07T04:36:32;21.20;88.60
31979;DHT22;18502;43.574;1.276;2022-08-07T04:39:02;21.10;88.60
31979;DHT22;18502;43.574;1.276;2022-08-07T04:41:28;21.10;88.90
31979;DHT22;18502;43.574;1.276;2022-08-07T04:43:54;21.10;88.60
31979;DHT22;18502;43.574;1.276;2022-08-07T04:49:17;21.20;88.20
31979;DHT22;18502;43.574;1.276;2022-08-07T04:55:07;21.20;88.10
31979;DHT22;18502;43.574;1.276;2022-08-07T04:57:44;21.10;88.50
31979;DHT22;18502;43.574;1.276;2022-08-07T05:00:20;21.10;88.60
31979;DHT22;18502;43.574;1.276;2022-08-07T05:02:59;21.20;88.40
31979;DHT22;18502;43.574;1.276;2022-08-07T05:05:35;21.20;89.10
31979;DHT22;18502;43.574;1.276;2022-08-07T05:08:05;21.20;88.40
31979;DHT22;18502;43.574;1.276;2022-08-07T05:10:34;21.20;88.20
31979;DHT22;18502;43.574;1.276;2022-08-07T05:13:10;21.30;87.90
31979;DHT22;18502;43.574;1.276;2022-08-07T05:15:41;21.30;87.60
31979;DHT22;18502;43.574;1.276;2022-08-07T05:18:28;21.40;87.20
31979;DHT22;18502;43.574;1.276;2022-08-07T05:20:58;21.40;86.80
31979;DHT22;18502;43.574;1.276;2022-08-07T05:23:32;21.30;87.40
31979;DHT22;18502;43.574;1.276;2022-08-07T05:26:01;21.40;87.20
31979;DHT22;18502;43.574;1.276;2022-08-07T05:28:28;21.40;87.20
31979;DHT22;18502;43.574;1.276;2022-08-07T05:30:56;21.40;87.40
31979;DHT22;18502;43.574;1.276;2022-08-07T05:33:23;21.40;87.70
31979;DHT22;18502;43.574;1.276;2022-08-07T05:35:50;21.30;88.00
31979;DHT22;18502;43.574;1.276;2022-08-07T05:38:19;21.40;88.20
31979;DHT22;18502;43.574;1.276;2022-08-07T05:40:45;21.40;88.50
31979;DHT22;18502;43.574;1.276;2022-08-07T05:43:11;21.30;89.10
31979;DHT22;18502;43.574;1.276;2022-08-07T05:45:39;21.30;89.10
31979;DHT22;18502;43.574;1.276;2022-08-07T05:48:06;21.30;89.20
31979;DHT22;18502;43.574;1.276;2022-08-07T05:50:32;21.50;88.60
31979;DHT22;18502;43.574;1.276;2022-08-07T05:53:02;21.40;88.60
31979;DHT22;18502;43.574;1.276;2022-08-07T05:55:29;21.40;88.40
31979;DHT22;18502;43.574;1.276;2022-08-07T05:57:57;21.50;88.30
31979;DHT22;18502;43.574;1.276;2022-08-07T06:00:24;21.70;87.00
31979;DHT22;18502;43.574;1.276;2022-08-07T06:02:51;21.70;87.30
31979;DHT22;18502;43.574;1.276;2022-08-07T06:05:19;21.90;86.40
31979;DHT22;18502;43.574;1.276;2022-08-07T06:07:47;22.00;86.60
31979;DHT22;18502;43.574;1.276;2022-08-07T06:10:14;22.10;86.70
31979;DHT22;18502;43.574;1.276;2022-08-07T06:12:39;22.00;87.00
31979;DHT22;18502;43.574;1.276;2022-08-07T06:15:08;22.10;86.90
31979;DHT22;18502;43.574;1.276;2022-08-07T06:17:34;22.30;85.30
31979;DHT22;18502;43.574;1.276;2022-08-07T06:20:00;22.20;84.90
31979;DHT22;18502;43.574;1.276;2022-08-07T06:22:28;22.30;85.30
31979;DHT22;18502;43.574;1.276;2022-08-07T06:24:57;22.40;84.60
31979;DHT22;18502;43.574;1.276;2022-08-07T06:27:25;22.40;84.40
31979;DHT22;18502;43.574;1.276;2022-08-07T06:29:51;22.50;84.40
31979;DHT22;18502;43.574;1.276;2022-08-07T06:32:17;22.50;84.10
31979;DHT22;18502;43.574;1.276;2022-08-07T06:34:43;22.60;84.50
31979;DHT22;18502;43.574;1.276;2022-08-07T06:37:08;22.60;83.00
31979;DHT22;18502;43.574;1.276;2022-08-07T06:39:34;22.70;82.30
31979;DHT22;18502;43.574;1.276;2022-08-07T06:42:10;22.80;82.00
31979;DHT22;18502;43.574;1.276;2022-08-07T06:44:39;22.80;81.80
31979;DHT22;18502;43.574;1.276;2022-08-07T06:47:06;22.90;81.50
31979;DHT22;18502;43.574;1.276;2022-08-07T06:49:32;23.00;81.10
31979;DHT22;18502;43.574;1.276;2022-08-07T06:51:58;23.00;81.00
31979;DHT22;18502;43.574;1.276;2022-08-07T06:54:26;23.10;81.20
31979;DHT22;18502;43.574;1.276;2022-08-07T06:56:56;23.10;79.80
31979;DHT22;18502;43.574;1.276;2022-08-07T06:59:26;23.10;80.00
31979;DHT22;18502;43.574;1.276;2022-08-07T07:01:53;23.20;79.60
31979;DHT22;18502;43.574;1.276;2022-08-07T07:04:20;23.30;79.50
31979;DHT22;18502;43.574;1.276;2022-08-07T07:06:46;23.60;79.50
31979;DHT22;18502;43.574;1.276;2022-08-07T07:09:32;23.60;78.30
31979;DHT22;18502;43.574;1.276;2022-08-07T07:14:49;23.60;77.70
31979;DHT22;18502;43.574;1.276;2022-08-07T07:17:32;23.70;78.20
31979;DHT22;18502;43.574;1.276;2022-08-07T07:20:02;23.70;77.10
31979;DHT22;18502;43.574;1.276;2022-08-07T07:22:28;23.80;77.40
31979;DHT22;18502;43.574;1.276;2022-08-07T07:24:54;24.00;78.00
31979;DHT22;18502;43.574;1.276;2022-08-07T07:27:23;24.10;77.60
31979;DHT22;18502;43.574;1.276;2022-08-07T07:29:54;24.30;77.50
31979;DHT22;18502;43.574;1.276;2022-08-07T07:32:23;24.40;78.30
31979;DHT22;18502;43.574;1.276;2022-08-07T07:34:53;24.40;78.80
31979;DHT22;18502;43.574;1.276;2022-08-07T07:37:19;24.40;78.00
31979;DHT22;18502;43.574;1.276;2022-08-07T07:39:48;24.40;78.50
31979;DHT22;18502;43.574;1.276;2022-08-07T07:42:15;24.30;78.70
31979;DHT22;18502;43.574;1.276;2022-08-07T07:44:44;24.40;78.50
31979;DHT22;18502;43.574;1.276;2022-08-07T07:47:13;24.40;77.30
31979;DHT22;18502;43.574;1.276;2022-08-07T07:49:40;24.50;77.80
31979;DHT22;18502;43.574;1.276;2022-08-07T07:52:08;24.70;77.20
31979;DHT22;18502;43.574;1.276;2022-08-07T07:54:35;24.80;76.70
31979;DHT22;18502;43.574;1.276;2022-08-07T07:57:02;24.90;76.60
31979;DHT22;18502;43.574;1.276;2022-08-07T07:59:30;24.90;76.20
31979;DHT22;18502;43.574;1.276;2022-08-07T08:01:58;25.20;76.00
31979;DHT22;18502;43.574;1.276;2022-08-07T08:04:26;25.20;75.00
31979;DHT22;18502;43.574;1.276;2022-08-07T08:06:53;25.40;74.80
31979;DHT22;18502;43.574;1.276;2022-08-07T08:09:24;25.70;74.30
31979;DHT22;18502;43.574;1.276;2022-08-07T08:11:51;25.80;75.10
31979;DHT22;18502;43.574;1.276;2022-08-07T08:14:17;25.70;74.80
31979;DHT22;18502;43.574;1.276;2022-08-07T08:16:44;25.80;75.20
31979;DHT22;18502;43.574;1.276;2022-08-07T08:19:13;26.00;75.10
31979;DHT22;18502;43.574;1.276;2022-08-07T08:21:43;26.00;74.90
31979;DHT22;18502;43.574;1.276;2022-08-07T08:24:32;25.90;75.40
31979;DHT22;18502;43.574;1.276;2022-08-07T08:27:21;26.10;75.50
31979;DHT22;18502;43.574;1.276;2022-08-07T08:29:53;26.50;75.20
31979;DHT22;18502;43.574;1.276;2022-08-07T08:32:23;26.60;74.50
31979;DHT22;18502;43.574;1.276;2022-08-07T08:34:50;26.50;74.30
31979;DHT22;18502;43.574;1.276;2022-08-07T08:37:18;26.70;74.70
31979;DHT22;18502;43.574;1.276;2022-08-07T08:39:44;26.90;74.20
31979;DHT22;18502;43.574;1.276;2022-08-07T08:42:35;26.80;73.40
31979;DHT22;18502;43.574;1.276;2022-08-07T08:50:36;27.40;72.60
31979;DHT22;18502;43.574;1.276;2022-08-07T08:53:24;27.40;71.20
31979;DHT22;18502;43.574;1.276;2022-08-07T08:56:02;27.50;71.10
31979;DHT22;18502;43.574;1.276;2022-08-07T09:01:12;27.80;69.80
31979;DHT22;18502;43.574;1.276;2022-08-07T09:04:15;27.80;70.60
31979;DHT22;18502;43.574;1.276;2022-08-07T09:07:01;27.80;70.10
31979;DHT22;18502;43.574;1.276;2022-08-07T09:15:26;28.20;69.10
31979;DHT22;18502;43.574;1.276;2022-08-07T09:24:04;28.60;68.40
31979;DHT22;18502;43.574;1.276;2022-08-07T09:26:23;28.60;67.80
31979;DHT22;18502;43.574;1.276;2022-08-07T09:29:05;28.70;66.50
31979;DHT22;18502;43.574;1.276;2022-08-07T09:31:58;28.70;66.70
31979;DHT22;18502;43.574;1.276;2022-08-07T09:35:01;28.70;66.10
31979;DHT22;18502;43.574;1.276;2022-08-07T09:37:39;28.70;66.00
31979;DHT22;18502;43.574;1.276;2022-08-07T09:49:04;29.90;63.90
31979;DHT22;18502;43.574;1.276;2022-08-07T09:54:46;29.60;62.30
31979;DHT22;18502;43.574;1.276;2022-08-07T10:14:03;29.70;59.50
31979;DHT22;18502;43.574;1.276;2022-08-07T10:27:56;30.60;57.90
31979;DHT22;18502;43.574;1.276;2022-08-07T10:33:37;31.00;56.30
31979;DHT22;18502;43.574;1.276;2022-08-07T10:42:23;31.10;55.60
31979;DHT22;18502;43.574;1.276;2022-08-07T10:45:44;30.90;55.30
31979;DHT22;18502;43.574;1.276;2022-08-07T10:50:38;31.40;55.10
31979;DHT22;18502;43.574;1.276;2022-08-07T10:55:43;32.00;54.20
31979;DHT22;18502;43.574;1.276;2022-08-07T11:00:52;32.50;53.20
31979;DHT22;18502;43.574;1.276;2022-08-07T11:03:31;32.20;51.30
31979;DHT22;18502;43.574;1.276;2022-08-07T11:09:01;32.70;51.30
31979;DHT22;18502;43.574;1.276;2022-08-07T11:11:43;32.80;50.40
31979;DHT22;18502;43.574;1.276;2022-08-07T11:14:16;32.90;50.70
31979;DHT22;18502;43.574;1.276;2022-08-07T11:27:22;40.10;42.10
31979;DHT22;18502;43.574;1.276;2022-08-07T11:33:08;40.20;38.30
31979;DHT22;18502;43.574;1.276;2022-08-07T11:35:52;40.40;34.90
31979;DHT22;18502;43.574;1.276;2022-08-07T11:38:45;39.90;36.30
31979;DHT22;18502;43.574;1.276;2022-08-07T11:41:15;43.40;33.60
31979;DHT22;18502;43.574;1.276;2022-08-07T11:46:33;43.80;31.30
31979;DHT22;18502;43.574;1.276;2022-08-07T11:50:06;45.60;28.90
31979;DHT22;18502;43.574;1.276;2022-08-07T12:00:14;43.90;28.40
31979;DHT22;18502;43.574;1.276;2022-08-07T12:05:19;48.00;26.20
31979;DHT22;18502;43.574;1.276;2022-08-07T12:08:04;49.20;25.20
31979;DHT22;18502;43.574;1.276;2022-08-07T12:10:41;49.70;24.20
31979;DHT22;18502;43.574;1.276;2022-08-07T12:13:40;48.80;23.50
31979;DHT22;18502;43.574;1.276;2022-08-07T12:16:21;45.80;24.90
31979;DHT22;18502;43.574;1.276;2022-08-07T12:21:41;48.70;22.60
31979;DHT22;18502;43.574;1.276;2022-08-07T12:24:16;46.20;23.50
31979;DHT22;18502;43.574;1.276;2022-08-07T12:26:56;48.20;23.30
31979;DHT22;18502;43.574;1.276;2022-08-07T12:34:40;50.20;20.40
31979;DHT22;18502;43.574;1.276;2022-08-07T12:37:09;51.30;20.30
31979;DHT22;18502;43.574;1.276;2022-08-07T12:39:36;52.20;20.50
31979;DHT22;18502;43.574;1.276;2022-08-07T12:42:04;51.30;19.20
31979;DHT22;18502;43.574;1.276;2022-08-07T12:44:31;51.30;19.50
31979;DHT22;18502;43.574;1.276;2022-08-07T12:52:49;52.50;18.80
31979;DHT22;18502;43.574;1.276;2022-08-07T12:55:31;52.90;18.20
31979;DHT22;18502;43.574;1.276;2022-08-07T12:58:01;49.20;17.60
31979;DHT22;18502;43.574;1.276;2022-08-07T13:19:29;51.50;16.50
31979;DHT22;18502;43.574;1.276;2022-08-07T13:22:11;53.20;15.60
31979;DHT22;18502;43.574;1.276;2022-08-07T13:24:49;53.80;15.50
31979;DHT22;18502;43.574;1.276;2022-08-07T13:27:30;53.30;14.90
31979;DHT22;18502;43.574;1.276;2022-08-07T13:30:08;53.50;14.20
31979;DHT22;18502;43.574;1.276;2022-08-07T13:32:49;53.60;15.00
31979;DHT22;18502;43.574;1.276;2022-08-07T13:37:57;53.90;14.90
31979;DHT22;18502;43.574;1.276;2022-08-07T13:40:29;54.30;14.70
31979;DHT22;18502;43.574;1.276;2022-08-07T13:42:58;54.10;14.20
31979;DHT22;18502;43.574;1.276;2022-08-07T13:45:27;54.60;13.40
31979;DHT22;18502;43.574;1.276;2022-08-07T13:47:55;54.80;13.30
31979;DHT22;18502;43.574;1.276;2022-08-07T13:50:24;55.20;13.20
31979;DHT22;18502;43.574;1.276;2022-08-07T13:52:51;54.30;12.50
31979;DHT22;18502;43.574;1.276;2022-08-07T13:55:22;54.30;13.30
31979;DHT22;18502;43.574;1.276;2022-08-07T13:57:51;54.90;13.30
31979;DHT22;18502;43.574;1.276;2022-08-07T14:00:18;55.10;13.00
31979;DHT22;18502;43.574;1.276;2022-08-07T14:02:46;55.30;13.00
31979;DHT22;18502;43.574;1.276;2022-08-07T14:05:20;53.50;12.40
31979;DHT22;18502;43.574;1.276;2022-08-07T14:07:48;50.30;13.20
31979;DHT22;18502;43.574;1.276;2022-08-07T14:10:17;47.20;15.20
31979;DHT22;18502;43.574;1.276;2022-08-07T14:12:58;49.20;14.50
31979;DHT22;18502;43.574;1.276;2022-08-07T14:15:38;49.50;15.00
31979;DHT22;18502;43.574;1.276;2022-08-07T14:18:21;46.40;14.30
31979;DHT22;18502;43.574;1.276;2022-08-07T14:20:48;46.40;15.30
31979;DHT22;18502;43.574;1.276;2022-08-07T14:23:27;50.60;14.80
31979;DHT22;18502;43.574;1.276;2022-08-07T14:26:12;47.60;14.40
31979;DHT22;18502;43.574;1.276;2022-08-07T14:28:43;46.30;15.40
31979;DHT22;18502;43.574;1.276;2022-08-07T14:31:10;48.90;15.00
31979;DHT22;18502;43.574;1.276;2022-08-07T14:33:36;50.60;14.00
31979;DHT22;18502;43.574;1.276;2022-08-07T14:36:03;51.20;13.90
31979;DHT22;18502;43.574;1.276;2022-08-07T14:38:30;53.30;13.80
31979;DHT22;18502;43.574;1.276;2022-08-07T14:41:04;53.70;13.40
31979;DHT22;18502;43.574;1.276;2022-08-07T14:43:33;53.30;12.50
31979;DHT22;18502;43.574;1.276;2022-08-07T14:45:59;48.30;14.50
31979;DHT22;18502;43.574;1.276;2022-08-07T14:48:29;50.60;14.30
31979;DHT22;18502;43.574;1.276;2022-08-07T14:51:02;47.60;13.90
31979;DHT22;18502;43.574;1.276;2022-08-07T14:53:31;48.80;15.30
31979;DHT22;18502;43.574;1.276;2022-08-07T14:56:05;51.80;13.40
31979;DHT22;18502;43.574;1.276;2022-08-07T14:58:35;52.50;13.20
31979;DHT22;18502;43.574;1.276;2022-08-07T15:01:02;52.20;12.60
31979;DHT22;18502;43.574;1.276;2022-08-07T15:03:29;52.00;12.30
31979;DHT22;18502;43.574;1.276;2022-08-07T15:05:56;51.90;11.90
31979;DHT22;18502;43.574;1.276;2022-08-07T15:08:26;52.50;12.10
31979;DHT22;18502;43.574;1.276;2022-08-07T15:11:01;51.60;11.70
31979;DHT22;18502;43.574;1.276;2022-08-07T15:13:29;49.60;12.60
31979;DHT22;18502;43.574;1.276;2022-08-07T15:16:01;50.20;12.70
31979;DHT22;18502;43.574;1.276;2022-08-07T15:18:42;49.50;12.90
31979;DHT22;18502;43.574;1.276;2022-08-07T15:21:17;48.60;12.90
31979;DHT22;18502;43.574;1.276;2022-08-07T15:23:47;45.90;13.80
31979;DHT22;18502;43.574;1.276;2022-08-07T15:26:15;49.30;14.00
31979;DHT22;18502;43.574;1.276;2022-08-07T15:28:43;50.80;13.00
31979;DHT22;18502;43.574;1.276;2022-08-07T15:31:12;48.30;12.00
31979;DHT22;18502;43.574;1.276;2022-08-07T15:33:40;46.30;12.80
31979;DHT22;18502;43.574;1.276;2022-08-07T15:36:07;48.60;13.30
31979;DHT22;18502;43.574;1.276;2022-08-07T15:38:39;47.90;12.00
31979;DHT22;18502;43.574;1.276;2022-08-07T15:41:12;48.60;13.00
31979;DHT22;18502;43.574;1.276;2022-08-07T15:43:42;49.90;11.80
31979;DHT22;18502;43.574;1.276;2022-08-07T15:46:28;51.70;12.30
31979;DHT22;18502;43.574;1.276;2022-08-07T15:48:55;52.30;10.90
31979;DHT22;18502;43.574;1.276;2022-08-07T15:51:24;52.40;10.40
31979;DHT22;18502;43.574;1.276;2022-08-07T15:53:55;53.10;10.40
31979;DHT22;18502;43.574;1.276;2022-08-07T15:56:28;53.40;10.50
31979;DHT22;18502;43.574;1.276;2022-08-07T15:59:04;49.30;11.50
31979;DHT22;18502;43.574;1.276;2022-08-07T16:01:39;47.70;11.60
31979;DHT22;18502;43.574;1.276;2022-08-07T16:04:09;50.40;11.80
31979;DHT22;18502;43.574;1.276;2022-08-07T16:09:11;52.10;11.00
31979;DHT22;18502;43.574;1.276;2022-08-07T16:12:02;52.30;10.60
31979;DHT22;18502;43.574;1.276;2022-08-07T16:20:28;45.30;13.50
31979;DHT22;18502;43.574;1.276;2022-08-07T16:23:01;45.30;12.70
31979;DHT22;18502;43.574;1.276;2022-08-07T16:28:56;50.10;11.50
31979;DHT22;18502;43.574;1.276;2022-08-07T16:31:30;48.70;12.20
31979;DHT22;18502;43.574;1.276;2022-08-07T16:34:06;47.80;11.40
31979;DHT22;18502;43.574;1.276;2022-08-07T16:59:04;49.40;11.50
31979;DHT22;18502;43.574;1.276;2022-08-07T17:02:00;49.10;11.30
31979;DHT22;18502;43.574;1.276;2022-08-07T17:05:03;48.80;11.10
31979;DHT22;18502;43.574;1.276;2022-08-07T17:07:36;49.20;11.20
31979;DHT22;18502;43.574;1.276;2022-08-07T17:10:17;48.30;11.10
31979;DHT22;18502;43.574;1.276;2022-08-07T17:12:55;46.60;10.70
31979;DHT22;18502;43.574;1.276;2022-08-07T17:26:37;46.90;11.00
31979;DHT22;18502;43.574;1.276;2022-08-07T17:29:12;44.40;10.90
31979;DHT22;18502;43.574;1.276;2022-08-07T17:32:28;44.40;12.00
31979;DHT22;18502;43.574;1.276;2022-08-07T17:34:39;45.20;11.30
31979;DHT22;18502;43.574;1.276;2022-08-07T17:37:33;45.90;11.40
31979;DHT22;18502;43.574;1.276;2022-08-07T17:40:06;45.10;10.80
31979;DHT22;18502;43.574;1.276;2022-08-07T17:45:11;42.90;11.60
31979;DHT22;18502;43.574;1.276;2022-08-07T17:48:04;40.60;12.10
31979;DHT22;18502;43.574;1.276;2022-08-07T17:50:51;39.80;13.20
31979;DHT22;18502;43.574;1.276;2022-08-07T17:53:40;41.20;13.00
31979;DHT22;18502;43.574;1.276;2022-08-07T17:56:20;42.40;12.90
31979;DHT22;18502;43.574;1.276;2022-08-07T17:58:57;42.30;12.00
31979;DHT22;18502;43.574;1.276;2022-08-07T18:01:25;41.10;13.10
31979;DHT22;18502;43.574;1.276;2022-08-07T18:07:15;39.50;14.00
31979;DHT22;18502;43.574;1.276;2022-08-07T18:09:45;40.50;14.00
31979;DHT22;18502;43.574;1.276;2022-08-07T18:15:33;39.20;13.80
31979;DHT22;18502;43.574;1.276;2022-08-07T18:18:10;37.30;14.90
31979;DHT22;18502;43.574;1.276;2022-08-07T18:20:51;36.50;15.90
31979;DHT22;18502;43.574;1.276;2022-08-07T18:26:12;35.40;17.00
31979;DHT22;18502;43.574;1.276;2022-08-07T18:43:02;33.50;18.90
31979;DHT22;18502;43.574;1.276;2022-08-07T18:45:43;33.30;19.40
31979;DHT22;18502;43.574;1.276;2022-08-07T18:56:42;32.30;20.20
31979;DHT22;18502;43.574;1.276;2022-08-07T19:02:20;31.90;20.60
31979;DHT22;18502;43.574;1.276;2022-08-07T19:04:58;31.70;20.60
31979;DHT22;18502;43.574;1.276;2022-08-07T19:10:17;31.40;20.90
31979;DHT22;18502;43.574;1.276;2022-08-07T19:12:53;31.10;21.40
31979;DHT22;18502;43.574;1.276;2022-08-07T19:18:13;30.90;21.80
31979;DHT22;18502;43.574;1.276;2022-08-07T19:21:00;30.70;22.60
31979;DHT22;18502;43.574;1.276;2022-08-07T19:23:36;30.50;22.80
31979;DHT22;18502;43.574;1.276;2022-08-07T19:26:03;30.30;23.30
31979;DHT22;18502;43.574;1.276;2022-08-07T19:28:36;30.20;23.30
31979;DHT22;18502;43.574;1.276;2022-08-07T19:31:20;30.10;23.20
31979;DHT22;18502;43.574;1.276;2022-08-07T19:33:48;30.00;23.60
31979;DHT22;18502;43.574;1.276;2022-08-07T19:36:16;29.80;24.00
31979;DHT22;18502;43.574;1.276;2022-08-07T19:38:45;29.70;23.70
31979;DHT22;18502;43.574;1.276;2022-08-07T19:41:12;29.60;24.00
31979;DHT22;18502;43.574;1.276;2022-08-07T19:43:42;29.40;23.90
31979;DHT22;18502;43.574;1.276;2022-08-07T19:46:13;29.50;23.90
31979;DHT22;18502;43.574;1.276;2022-08-07T19:48:45;29.30;24.50
31979;DHT22;18502;43.574;1.276;2022-08-07T19:51:15;29.30;24.30
31979;DHT22;18502;43.574;1.276;2022-08-07T19:53:52;29.10;24.40
31979;DHT22;18502;43.574;1.276;2022-08-07T19:56:21;29.00;24.50